sensor_id;sensor_type;location;lat;lon;timestamp;P1;durP1;ratioP1;P2;durP2;ratioP2
23608;SDS011;11982;50.810;4.442;2023-10-31T00:04:24;49.97;;;23.85;;
23608;SDS011;11982;50.810;4.442;2023-10-31T00:06:50;55.95;;;25.85;;
23608;SDS011;11982;50.810;4.442;2023-10-31T00:09:15;44.03;;;22.73;;
23608;SDS011;11982;50.810;4.442;2023-10-31T00:11:41;48.33;;;23.25;;
23608;SDS011;11982;50.810;4.442;2023-10-31T00:14:08;48.72;;;22.58;;
23608;SDS011;11982;50.810;4.442;2023-10-31T00:16:33;42.72;;;21.50;;
23608;SDS011;11982;50.810;4.442;2023-10-31T00:18:59;47.08;;;21.88;;
23608;SDS011;11982;50.810;4.442;2023-10-31T00:21:25;44.13;;;21.90;;
23608;SDS011;11982;50.810;4.442;2023-10-31T00:23:50;40.30;;;21.02;;
23608;SDS011;11982;50.810;4.442;2023-10-31T00:26:16;39.38;;;20.30;;
23608;SDS011;11982;50.810;4.442;2023-10-31T00:28:41;36.53;;;19.52;;
23608;SDS011;11982;50.810;4.442;2023-10-31T00:34:29;34.83;;;18.75;;
23608;SDS011;11982;50.810;4.442;2023-10-31T00:36:54;34.83;;;19.02;;
23608;SDS011;11982;50.810;4.442;2023-10-31T00:39:20;32.35;;;19.45;;
23608;SDS011;11982;50.810;4.442;2023-10-31T00:41:46;31.60;;;17.85;;
23608;SDS011;11982;50.810;4.442;2023-10-31T00:44:12;29.42;;;16.17;;
23608;SDS011;11982;50.810;4.442;2023-10-31T00:50:00;27.65;;;14.15;;
23608;SDS011;11982;50.810;4.442;2023-10-31T00:52:26;28.48;;;15.23;;
23608;SDS011;11982;50.810;4.442;2023-10-31T00:54:51;23.60;;;14.23;;
23608;SDS011;11982;50.810;4.442;2023-10-31T00:57:17;24.42;;;14.15;;
23608;SDS011;11982;50.810;4.442;2023-10-31T00:59:43;25.90;;;13.68;;
23608;SDS011;11982;50.810;4.442;2023-10-31T01:02:08;30.60;;;14.23;;
23608;SDS011;11982;50.810;4.442;2023-10-31T01:04:35;23.73;;;14.27;;
23608;SDS011;11982;50.810;4.442;2023-10-31T01:07:02;26.85;;;13.55;;
23608;SDS011;11982;50.810;4.442;2023-10-31T01:09:27;27.85;;;14.13;;
23608;SDS011;11982;50.810;4.442;2023-10-31T01:11:53;24.85;;;13.82;;
23608;SDS011;11982;50.810;4.442;2023-10-31T01:14:19;24.00;;;13.77;;
23608;SDS011;11982;50.810;4.442;2023-10-31T01:20:07;24.67;;;14.48;;
23608;SDS011;11982;50.810;4.442;2023-10-31T01:22:34;27.80;;;13.82;;
23608;SDS011;11982;50.810;4.442;2023-10-31T01:25:00;30.08;;;15.25;;
23608;SDS011;11982;50.810;4.442;2023-10-31T01:27:26;26.63;;;14.52;;
23608;SDS011;11982;50.810;4.442;2023-10-31T01:29:51;24.88;;;14.82;;
23608;SDS011;11982;50.810;4.442;2023-10-31T01:35:39;22.48;;;14.52;;
23608;SDS011;11982;50.810;4.442;2023-10-31T01:38:05;22.52;;;14.70;;
23608;SDS011;11982;50.810;4.442;2023-10-31T01:40:30;23.35;;;14.10;;
23608;SDS011;11982;50.810;4.442;2023-10-31T01:42:56;23.65;;;14.50;;
23608;SDS011;11982;50.810;4.442;2023-10-31T01:45:22;21.70;;;13.80;;
23608;SDS011;11982;50.810;4.442;2023-10-31T01:47:47;26.40;;;15.75;;
23608;SDS011;11982;50.810;4.442;2023-10-31T01:50:14;26.92;;;15.48;;
23608;SDS011;11982;50.810;4.442;2023-10-31T01:52:41;21.75;;;14.57;;
23608;SDS011;11982;50.810;4.442;2023-10-31T01:55:07;25.58;;;15.50;;
23608;SDS011;11982;50.810;4.442;2023-10-31T01:57:34;21.42;;;12.85;;
23608;SDS011;11982;50.810;4.442;2023-10-31T01:59:59;22.70;;;13.85;;
23608;SDS011;11982;50.810;4.442;2023-10-31T02:05:47;26.25;;;13.73;;
23608;SDS011;11982;50.810;4.442;2023-10-31T02:08:13;20.40;;;13.20;;
23608;SDS011;11982;50.810;4.442;2023-10-31T02:10:38;21.02;;;13.32;;
23608;SDS011;11982;50.810;4.442;2023-10-31T02:13:14;20.33;;;14.10;;
23608;SDS011;11982;50.810;4.442;2023-10-31T02:15:41;25.63;;;13.30;;
23608;SDS011;11982;50.810;4.442;2023-10-31T02:18:07;24.17;;;13.95;;
23608;SDS011;11982;50.810;4.442;2023-10-31T02:20:34;23.08;;;13.32;;
23608;SDS011;11982;50.810;4.442;2023-10-31T02:23:00;23.80;;;13.95;;
23608;SDS011;11982;50.810;4.442;2023-10-31T02:25:27;23.40;;;13.40;;
23608;SDS011;11982;50.810;4.442;2023-10-31T02:27:53;18.20;;;14.02;;
23608;SDS011;11982;50.810;4.442;2023-10-31T02:30:18;18.10;;;13.15;;
23608;SDS011;11982;50.810;4.442;2023-10-31T02:36:06;22.38;;;14.55;;
23608;SDS011;11982;50.810;4.442;2023-10-31T02:38:32;17.77;;;13.23;;
23608;SDS011;11982;50.810;4.442;2023-10-31T02:40:58;21.70;;;14.23;;
23608;SDS011;11982;50.810;4.442;2023-10-31T02:43:23;19.08;;;13.43;;
23608;SDS011;11982;50.810;4.442;2023-10-31T02:45:49;19.65;;;14.15;;
23608;SDS011;11982;50.810;4.442;2023-10-31T02:51:37;20.52;;;13.25;;
23608;SDS011;11982;50.810;4.442;2023-10-31T02:54:03;19.33;;;13.48;;
23608;SDS011;11982;50.810;4.442;2023-10-31T02:56:29;18.90;;;13.38;;
23608;SDS011;11982;50.810;4.442;2023-10-31T02:58:55;18.65;;;13.63;;
23608;SDS011;11982;50.810;4.442;2023-10-31T03:01:20;16.27;;;12.50;;
23608;SDS011;11982;50.810;4.442;2023-10-31T03:03:46;20.10;;;12.40;;
23608;SDS011;11982;50.810;4.442;2023-10-31T03:06:12;18.45;;;12.15;;
23608;SDS011;11982;50.810;4.442;2023-10-31T03:08:37;18.75;;;11.77;;
23608;SDS011;11982;50.810;4.442;2023-10-31T03:11:03;20.55;;;12.82;;
23608;SDS011;11982;50.810;4.442;2023-10-31T03:13:28;23.63;;;13.35;;
23608;SDS011;11982;50.810;4.442;2023-10-31T03:15:54;18.10;;;13.80;;
23608;SDS011;11982;50.810;4.442;2023-10-31T03:21:42;20.80;;;13.95;;
23608;SDS011;11982;50.810;4.442;2023-10-31T03:24:07;20.92;;;13.88;;
23608;SDS011;11982;50.810;4.442;2023-10-31T03:26:33;20.10;;;13.70;;
23608;SDS011;11982;50.810;4.442;2023-10-31T03:28:59;23.23;;;14.15;;
23608;SDS011;11982;50.810;4.442;2023-10-31T03:31:24;21.00;;;13.23;;
23608;SDS011;11982;50.810;4.442;2023-10-31T03:37:12;17.90;;;13.95;;
23608;SDS011;11982;50.810;4.442;2023-10-31T03:39:37;23.02;;;14.65;;
23608;SDS011;11982;50.810;4.442;2023-10-31T03:42:03;18.92;;;14.05;;
23608;SDS011;11982;50.810;4.442;2023-10-31T03:44:30;19.65;;;13.85;;
23608;SDS011;11982;50.810;4.442;2023-10-31T03:46:56;20.38;;;13.55;;
23608;SDS011;11982;50.810;4.442;2023-10-31T03:49:21;22.15;;;14.45;;
23608;SDS011;11982;50.810;4.442;2023-10-31T03:51:47;23.27;;;14.85;;
23608;SDS011;11982;50.810;4.442;2023-10-31T03:54:13;27.15;;;15.70;;
23608;SDS011;11982;50.810;4.442;2023-10-31T03:56:42;25.77;;;15.30;;
23608;SDS011;11982;50.810;4.442;2023-10-31T03:59:09;24.17;;;16.00;;
23608;SDS011;11982;50.810;4.442;2023-10-31T04:01:34;25.65;;;15.52;;
23608;SDS011;11982;50.810;4.442;2023-10-31T04:07:22;25.60;;;15.77;;
23608;SDS011;11982;50.810;4.442;2023-10-31T04:09:48;28.13;;;17.38;;
23608;SDS011;11982;50.810;4.442;2023-10-31T04:12:13;29.15;;;18.30;;
23608;SDS011;11982;50.810;4.442;2023-10-31T04:14:39;23.75;;;17.02;;
23608;SDS011;11982;50.810;4.442;2023-10-31T04:17:05;27.02;;;17.90;;
23608;SDS011;11982;50.810;4.442;2023-10-31T04:19:30;28.42;;;16.67;;
23608;SDS011;11982;50.810;4.442;2023-10-31T04:21:56;27.23;;;17.35;;
23608;SDS011;11982;50.810;4.442;2023-10-31T04:24:21;26.45;;;18.17;;
23608;SDS011;11982;50.810;4.442;2023-10-31T04:26:47;28.58;;;17.58;;
23608;SDS011;11982;50.810;4.442;2023-10-31T04:29:13;28.60;;;17.75;;
23608;SDS011;11982;50.810;4.442;2023-10-31T04:31:38;31.23;;;16.92;;
23608;SDS011;11982;50.810;4.442;2023-10-31T04:37:26;28.13;;;16.75;;
23608;SDS011;11982;50.810;4.442;2023-10-31T04:39:52;31.15;;;18.15;;
23608;SDS011;11982;50.810;4.442;2023-10-31T04:42:17;27.17;;;16.95;;
23608;SDS011;11982;50.810;4.442;2023-10-31T04:44:45;35.38;;;18.35;;
23608;SDS011;11982;50.810;4.442;2023-10-31T04:47:11;28.23;;;17.52;;
23608;SDS011;11982;50.810;4.442;2023-10-31T04:52:58;28.17;;;18.50;;
23608;SDS011;11982;50.810;4.442;2023-10-31T04:55:24;28.95;;;18.60;;
23608;SDS011;11982;50.810;4.442;2023-10-31T04:57:51;28.83;;;18.40;;
23608;SDS011;11982;50.810;4.442;2023-10-31T05:00:16;31.50;;;17.98;;
23608;SDS011;11982;50.810;4.442;2023-10-31T05:02:42;33.08;;;18.48;;
23608;SDS011;11982;50.810;4.442;2023-10-31T05:05:08;31.48;;;19.42;;
23608;SDS011;11982;50.810;4.442;2023-10-31T05:07:34;34.03;;;19.70;;
23608;SDS011;11982;50.810;4.442;2023-10-31T05:10:00;29.70;;;17.92;;
23608;SDS011;11982;50.810;4.442;2023-10-31T05:12:25;25.15;;;17.75;;
23608;SDS011;11982;50.810;4.442;2023-10-31T05:14:51;28.80;;;19.08;;
23608;SDS011;11982;50.810;4.442;2023-10-31T05:17:16;31.23;;;18.58;;
23608;SDS011;11982;50.810;4.442;2023-10-31T05:23:04;29.83;;;18.80;;
23608;SDS011;11982;50.810;4.442;2023-10-31T05:25:30;29.77;;;18.58;;
23608;SDS011;11982;50.810;4.442;2023-10-31T05:27:56;28.45;;;18.20;;
23608;SDS011;11982;50.810;4.442;2023-10-31T05:30:21;31.80;;;19.40;;
23608;SDS011;11982;50.810;4.442;2023-10-31T05:32:49;31.23;;;19.45;;
23608;SDS011;11982;50.810;4.442;2023-10-31T05:38:37;29.25;;;18.80;;
23608;SDS011;11982;50.810;4.442;2023-10-31T05:41:02;30.25;;;18.88;;
23608;SDS011;11982;50.810;4.442;2023-10-31T05:43:32;30.27;;;18.70;;
23608;SDS011;11982;50.810;4.442;2023-10-31T05:45:59;30.05;;;17.83;;
23608;SDS011;11982;50.810;4.442;2023-10-31T05:48:24;30.60;;;18.98;;
23608;SDS011;11982;50.810;4.442;2023-10-31T05:50:50;28.95;;;18.60;;
23608;SDS011;11982;50.810;4.442;2023-10-31T05:53:15;25.65;;;17.92;;
23608;SDS011;11982;50.810;4.442;2023-10-31T05:55:41;27.50;;;17.95;;
23608;SDS011;11982;50.810;4.442;2023-10-31T05:58:07;27.55;;;17.95;;
23608;SDS011;11982;50.810;4.442;2023-10-31T06:00:32;29.65;;;18.55;;
23608;SDS011;11982;50.810;4.442;2023-10-31T06:02:58;30.58;;;17.88;;
23608;SDS011;11982;50.810;4.442;2023-10-31T06:08:46;28.48;;;16.92;;
23608;SDS011;11982;50.810;4.442;2023-10-31T06:11:11;28.40;;;16.98;;
23608;SDS011;11982;50.810;4.442;2023-10-31T06:13:37;27.05;;;17.73;;
23608;SDS011;11982;50.810;4.442;2023-10-31T06:16:03;24.40;;;15.48;;
23608;SDS011;11982;50.810;4.442;2023-10-31T06:18:30;27.40;;;14.98;;
23608;SDS011;11982;50.810;4.442;2023-10-31T06:24:17;22.80;;;15.43;;
23608;SDS011;11982;50.810;4.442;2023-10-31T06:26:43;25.45;;;16.00;;
23608;SDS011;11982;50.810;4.442;2023-10-31T06:29:08;26.83;;;15.60;;
23608;SDS011;11982;50.810;4.442;2023-10-31T06:31:34;26.00;;;16.20;;
23608;SDS011;11982;50.810;4.442;2023-10-31T06:33:59;27.58;;;14.63;;
23608;SDS011;11982;50.810;4.442;2023-10-31T06:36:25;28.67;;;15.20;;
23608;SDS011;11982;50.810;4.442;2023-10-31T06:38:51;23.67;;;13.52;;
23608;SDS011;11982;50.810;4.442;2023-10-31T06:41:16;21.27;;;14.02;;
23608;SDS011;11982;50.810;4.442;2023-10-31T06:43:43;22.63;;;14.43;;
23608;SDS011;11982;50.810;4.442;2023-10-31T06:46:08;20.58;;;13.02;;
23608;SDS011;11982;50.810;4.442;2023-10-31T06:48:34;25.75;;;13.90;;
23608;SDS011;11982;50.810;4.442;2023-10-31T06:54:21;18.65;;;12.85;;
23608;SDS011;11982;50.810;4.442;2023-10-31T06:56:47;21.10;;;12.73;;
23608;SDS011;11982;50.810;4.442;2023-10-31T06:59:13;22.33;;;13.05;;
23608;SDS011;11982;50.810;4.442;2023-10-31T07:01:38;21.92;;;12.88;;
23608;SDS011;11982;50.810;4.442;2023-10-31T07:04:04;24.08;;;15.23;;
23608;SDS011;11982;50.810;4.442;2023-10-31T07:06:30;25.98;;;15.20;;
23608;SDS011;11982;50.810;4.442;2023-10-31T07:08:56;25.65;;;13.63;;
23608;SDS011;11982;50.810;4.442;2023-10-31T07:11:22;22.92;;;13.65;;
23608;SDS011;11982;50.810;4.442;2023-10-31T07:13:48;23.02;;;13.90;;
23608;SDS011;11982;50.810;4.442;2023-10-31T07:16:13;22.85;;;14.52;;
23608;SDS011;11982;50.810;4.442;2023-10-31T07:18:39;26.13;;;14.38;;
23608;SDS011;11982;50.810;4.442;2023-10-31T07:24:26;19.67;;;13.77;;
23608;SDS011;11982;50.810;4.442;2023-10-31T07:26:53;19.73;;;13.30;;
23608;SDS011;11982;50.810;4.442;2023-10-31T07:29:19;27.60;;;14.13;;
23608;SDS011;11982;50.810;4.442;2023-10-31T07:31:44;19.15;;;13.13;;
23608;SDS011;11982;50.810;4.442;2023-10-31T07:34:10;22.08;;;13.25;;
23608;SDS011;11982;50.810;4.442;2023-10-31T07:39:58;23.50;;;13.82;;
23608;SDS011;11982;50.810;4.442;2023-10-31T07:42:24;18.58;;;12.80;;
23608;SDS011;11982;50.810;4.442;2023-10-31T07:44:50;24.23;;;13.23;;
23608;SDS011;11982;50.810;4.442;2023-10-31T07:47:16;23.73;;;12.50;;
23608;SDS011;11982;50.810;4.442;2023-10-31T07:49:41;19.67;;;12.88;;
23608;SDS011;11982;50.810;4.442;2023-10-31T07:52:07;19.55;;;11.77;;
23608;SDS011;11982;50.810;4.442;2023-10-31T07:54:32;22.73;;;11.82;;
23608;SDS011;11982;50.810;4.442;2023-10-31T07:56:58;23.45;;;12.88;;
23608;SDS011;11982;50.810;4.442;2023-10-31T07:59:24;17.65;;;10.90;;
23608;SDS011;11982;50.810;4.442;2023-10-31T08:01:49;20.38;;;10.95;;
23608;SDS011;11982;50.810;4.442;2023-10-31T08:04:17;20.90;;;10.73;;
23608;SDS011;11982;50.810;4.442;2023-10-31T08:10:04;20.90;;;10.63;;
23608;SDS011;11982;50.810;4.442;2023-10-31T08:12:30;17.73;;;10.18;;
23608;SDS011;11982;50.810;4.442;2023-10-31T08:14:56;18.23;;;10.52;;
23608;SDS011;11982;50.810;4.442;2023-10-31T08:17:23;16.92;;;10.48;;
23608;SDS011;11982;50.810;4.442;2023-10-31T08:19:49;16.00;;;9.77;;
23608;SDS011;11982;50.810;4.442;2023-10-31T08:25:37;15.63;;;9.63;;
23608;SDS011;11982;50.810;4.442;2023-10-31T08:28:02;15.57;;;10.00;;
23608;SDS011;11982;50.810;4.442;2023-10-31T08:30:28;20.38;;;9.70;;
23608;SDS011;11982;50.810;4.442;2023-10-31T08:32:54;18.75;;;10.25;;
23608;SDS011;11982;50.810;4.442;2023-10-31T08:35:19;18.45;;;10.10;;
23608;SDS011;11982;50.810;4.442;2023-10-31T08:37:45;15.60;;;9.60;;
23608;SDS011;11982;50.810;4.442;2023-10-31T08:40:10;22.08;;;9.90;;
23608;SDS011;11982;50.810;4.442;2023-10-31T08:42:36;17.23;;;9.25;;
23608;SDS011;11982;50.810;4.442;2023-10-31T08:45:02;17.75;;;8.90;;
23608;SDS011;11982;50.810;4.442;2023-10-31T08:47:28;21.90;;;8.77;;
23608;SDS011;11982;50.810;4.442;2023-10-31T08:49:54;16.83;;;9.15;;
23608;SDS011;11982;50.810;4.442;2023-10-31T08:55:41;18.95;;;8.75;;
23608;SDS011;11982;50.810;4.442;2023-10-31T08:58:10;16.08;;;8.05;;
23608;SDS011;11982;50.810;4.442;2023-10-31T09:00:36;15.45;;;8.13;;
23608;SDS011;11982;50.810;4.442;2023-10-31T09:03:02;19.42;;;7.00;;
23608;SDS011;11982;50.810;4.442;2023-10-31T09:05:27;16.05;;;6.50;;
23608;SDS011;11982;50.810;4.442;2023-10-31T09:11:15;13.00;;;6.25;;
23608;SDS011;11982;50.810;4.442;2023-10-31T09:13:41;11.07;;;6.15;;
23608;SDS011;11982;50.810;4.442;2023-10-31T09:16:06;12.15;;;6.22;;
23608;SDS011;11982;50.810;4.442;2023-10-31T09:18:32;12.15;;;6.47;;
23608;SDS011;11982;50.810;4.442;2023-10-31T09:20:58;12.32;;;5.93;;
23608;SDS011;11982;50.810;4.442;2023-10-31T09:23:24;8.68;;;5.43;;
23608;SDS011;11982;50.810;4.442;2023-10-31T09:25:49;9.40;;;5.65;;
23608;SDS011;11982;50.810;4.442;2023-10-31T09:28:15;14.30;;;6.22;;
23608;SDS011;11982;50.810;4.442;2023-10-31T09:30:41;15.35;;;7.07;;
23608;SDS011;11982;50.810;4.442;2023-10-31T09:33:06;9.63;;;5.97;;
23608;SDS011;11982;50.810;4.442;2023-10-31T09:35:32;21.90;;;6.82;;
23608;SDS011;11982;50.810;4.442;2023-10-31T09:41:20;16.13;;;7.07;;
23608;SDS011;11982;50.810;4.442;2023-10-31T09:43:46;19.77;;;7.32;;
23608;SDS011;11982;50.810;4.442;2023-10-31T09:46:11;15.25;;;7.53;;
23608;SDS011;11982;50.810;4.442;2023-10-31T09:48:37;14.95;;;7.97;;
23608;SDS011;11982;50.810;4.442;2023-10-31T09:51:03;16.48;;;7.93;;
23608;SDS011;11982;50.810;4.442;2023-10-31T09:57:11;16.85;;;8.18;;
23608;SDS011;11982;50.810;4.442;2023-10-31T09:59:38;16.75;;;8.38;;
23608;SDS011;11982;50.810;4.442;2023-10-31T10:02:03;14.05;;;7.95;;
23608;SDS011;11982;50.810;4.442;2023-10-31T10:04:29;12.07;;;7.35;;
23608;SDS011;11982;50.810;4.442;2023-10-31T10:06:59;18.63;;;7.97;;
23608;SDS011;11982;50.810;4.442;2023-10-31T10:09:26;17.90;;;8.82;;
23608;SDS011;11982;50.810;4.442;2023-10-31T10:11:53;20.25;;;8.45;;
23608;SDS011;11982;50.810;4.442;2023-10-31T10:14:19;13.48;;;8.48;;
23608;SDS011;11982;50.810;4.442;2023-10-31T10:16:47;20.48;;;8.57;;
23608;SDS011;11982;50.810;4.442;2023-10-31T10:19:20;16.83;;;8.38;;
23608;SDS011;11982;50.810;4.442;2023-10-31T10:21:48;21.17;;;7.82;;
23608;SDS011;11982;50.810;4.442;2023-10-31T10:24:21;19.23;;;7.82;;
23608;SDS011;11982;50.810;4.442;2023-10-31T10:26:48;20.77;;;8.55;;
23608;SDS011;11982;50.810;4.442;2023-10-31T10:29:14;17.65;;;8.93;;
23608;SDS011;11982;50.810;4.442;2023-10-31T10:31:40;19.08;;;8.13;;
23608;SDS011;11982;50.810;4.442;2023-10-31T10:34:07;19.65;;;9.00;;
23608;SDS011;11982;50.810;4.442;2023-10-31T10:36:34;23.63;;;9.23;;
23608;SDS011;11982;50.810;4.442;2023-10-31T10:42:32;17.00;;;8.98;;
23608;SDS011;11982;50.810;4.442;2023-10-31T10:45:02;23.75;;;9.07;;
23608;SDS011;11982;50.810;4.442;2023-10-31T10:47:30;19.25;;;8.90;;
23608;SDS011;11982;50.810;4.442;2023-10-31T10:49:58;19.90;;;8.07;;
23608;SDS011;11982;50.810;4.442;2023-10-31T10:55:08;21.35;;;9.20;;
23608;SDS011;11982;50.810;4.442;2023-10-31T10:57:38;19.25;;;9.18;;
23608;SDS011;11982;50.810;4.442;2023-10-31T11:00:13;19.20;;;9.93;;
23608;SDS011;11982;50.810;4.442;2023-10-31T11:02:40;26.33;;;11.20;;
23608;SDS011;11982;50.810;4.442;2023-10-31T11:05:10;22.13;;;10.45;;
23608;SDS011;11982;50.810;4.442;2023-10-31T11:07:37;23.80;;;10.90;;
23608;SDS011;11982;50.810;4.442;2023-10-31T11:10:04;24.98;;;11.43;;
23608;SDS011;11982;50.810;4.442;2023-10-31T11:12:31;21.15;;;10.65;;
23608;SDS011;11982;50.810;4.442;2023-10-31T11:15:00;23.98;;;10.60;;
23608;SDS011;11982;50.810;4.442;2023-10-31T11:17:28;23.20;;;10.75;;
23608;SDS011;11982;50.810;4.442;2023-10-31T11:19:56;24.42;;;11.13;;
23608;SDS011;11982;50.810;4.442;2023-10-31T11:22:23;25.42;;;10.65;;
23608;SDS011;11982;50.810;4.442;2023-10-31T11:24:49;23.17;;;11.40;;
23608;SDS011;11982;50.810;4.442;2023-10-31T11:27:16;19.17;;;9.93;;
23608;SDS011;11982;50.810;4.442;2023-10-31T11:29:43;23.50;;;11.25;;
23608;SDS011;11982;50.810;4.442;2023-10-31T11:32:09;20.77;;;10.93;;
23608;SDS011;11982;50.810;4.442;2023-10-31T11:34:39;21.75;;;10.05;;
23608;SDS011;11982;50.810;4.442;2023-10-31T11:37:19;21.27;;;10.38;;
23608;SDS011;11982;50.810;4.442;2023-10-31T11:46:19;25.35;;;9.75;;
23608;SDS011;11982;50.810;4.442;2023-10-31T11:48:50;18.15;;;9.50;;
23608;SDS011;11982;50.810;4.442;2023-10-31T11:51:16;15.23;;;9.02;;
23608;SDS011;11982;50.810;4.442;2023-10-31T11:53:43;21.52;;;9.40;;
23608;SDS011;11982;50.810;4.442;2023-10-31T11:56:12;18.80;;;10.50;;
23608;SDS011;11982;50.810;4.442;2023-10-31T11:58:37;28.17;;;10.50;;
23608;SDS011;11982;50.810;4.442;2023-10-31T12:01:04;28.45;;;10.85;;
23608;SDS011;11982;50.810;4.442;2023-10-31T12:03:40;15.95;;;8.30;;
23608;SDS011;11982;50.810;4.442;2023-10-31T12:06:07;12.77;;;7.82;;
23608;SDS011;11982;50.810;4.442;2023-10-31T12:08:39;16.55;;;8.18;;
23608;SDS011;11982;50.810;4.442;2023-10-31T12:11:15;17.67;;;7.88;;
23608;SDS011;11982;50.810;4.442;2023-10-31T12:13:53;16.75;;;7.85;;
23608;SDS011;11982;50.810;4.442;2023-10-31T12:16:22;14.23;;;7.25;;
23608;SDS011;11982;50.810;4.442;2023-10-31T12:18:54;10.60;;;7.05;;
23608;SDS011;11982;50.810;4.442;2023-10-31T12:24:11;20.77;;;7.88;;
23608;SDS011;11982;50.810;4.442;2023-10-31T12:26:38;14.25;;;7.22;;
23608;SDS011;11982;50.810;4.442;2023-10-31T12:29:17;14.65;;;7.63;;
23608;SDS011;11982;50.810;4.442;2023-10-31T12:31:45;15.02;;;7.32;;
23608;SDS011;11982;50.810;4.442;2023-10-31T12:34:11;13.60;;;7.88;;
23608;SDS011;11982;50.810;4.442;2023-10-31T12:36:38;9.95;;;6.57;;
23608;SDS011;11982;50.810;4.442;2023-10-31T12:39:05;14.52;;;6.60;;
23608;SDS011;11982;50.810;4.442;2023-10-31T12:41:34;11.13;;;5.85;;
23608;SDS011;11982;50.810;4.442;2023-10-31T12:44:00;11.00;;;6.40;;
23608;SDS011;11982;50.810;4.442;2023-10-31T12:48:56;11.95;;;5.70;;
23608;SDS011;11982;50.810;4.442;2023-10-31T12:51:22;12.85;;;5.10;;
23608;SDS011;11982;50.810;4.442;2023-10-31T12:53:49;9.63;;;5.25;;
23608;SDS011;11982;50.810;4.442;2023-10-31T12:56:40;8.50;;;4.40;;
23608;SDS011;11982;50.810;4.442;2023-10-31T12:59:07;10.57;;;4.57;;
23608;SDS011;11982;50.810;4.442;2023-10-31T13:01:41;6.07;;;4.20;;
23608;SDS011;11982;50.810;4.442;2023-10-31T13:04:08;7.63;;;4.45;;
23608;SDS011;11982;50.810;4.442;2023-10-31T13:06:34;7.82;;;4.85;;
23608;SDS011;11982;50.810;4.442;2023-10-31T13:09:00;9.82;;;4.80;;
23608;SDS011;11982;50.810;4.442;2023-10-31T13:11:30;10.95;;;4.45;;
23608;SDS011;11982;50.810;4.442;2023-10-31T13:13:56;9.75;;;4.53;;
23608;SDS011;11982;50.810;4.442;2023-10-31T13:16:22;7.88;;;4.68;;
23608;SDS011;11982;50.810;4.442;2023-10-31T13:18:48;7.18;;;4.55;;
23608;SDS011;11982;50.810;4.442;2023-10-31T13:21:14;13.07;;;5.05;;
23608;SDS011;11982;50.810;4.442;2023-10-31T13:23:41;10.80;;;5.32;;
23608;SDS011;11982;50.810;4.442;2023-10-31T13:30:46;10.93;;;5.47;;
23608;SDS011;11982;50.810;4.442;2023-10-31T13:33:13;9.85;;;6.05;;
23608;SDS011;11982;50.810;4.442;2023-10-31T13:35:39;16.23;;;9.23;;
23608;SDS011;11982;50.810;4.442;2023-10-31T13:38:04;19.98;;;10.85;;
23608;SDS011;11982;50.810;4.442;2023-10-31T13:43:52;19.00;;;13.25;;
23608;SDS011;11982;50.810;4.442;2023-10-31T13:46:17;28.35;;;13.50;;
23608;SDS011;11982;50.810;4.442;2023-10-31T13:48:43;25.30;;;15.27;;
23608;SDS011;11982;50.810;4.442;2023-10-31T13:51:08;23.13;;;14.05;;
23608;SDS011;11982;50.810;4.442;2023-10-31T13:53:34;31.52;;;15.65;;
23608;SDS011;11982;50.810;4.442;2023-10-31T13:59:22;27.65;;;14.25;;
23608;SDS011;11982;50.810;4.442;2023-10-31T14:01:48;24.13;;;14.35;;
23608;SDS011;11982;50.810;4.442;2023-10-31T14:04:13;26.80;;;14.35;;
23608;SDS011;11982;50.810;4.442;2023-10-31T14:06:40;23.27;;;14.50;;
23608;SDS011;11982;50.810;4.442;2023-10-31T14:09:07;22.15;;;13.20;;
23608;SDS011;11982;50.810;4.442;2023-10-31T14:14:56;20.90;;;10.93;;
23608;SDS011;11982;50.810;4.442;2023-10-31T14:17:22;16.08;;;10.80;;
23608;SDS011;11982;50.810;4.442;2023-10-31T14:19:48;19.35;;;10.18;;
23608;SDS011;11982;50.810;4.442;2023-10-31T14:22:14;17.25;;;10.05;;
23608;SDS011;11982;50.810;4.442;2023-10-31T14:24:39;18.88;;;10.02;;
23608;SDS011;11982;50.810;4.442;2023-10-31T14:27:05;14.25;;;9.60;;
23608;SDS011;11982;50.810;4.442;2023-10-31T14:29:31;19.23;;;9.70;;
23608;SDS011;11982;50.810;4.442;2023-10-31T14:31:57;16.63;;;9.70;;
23608;SDS011;11982;50.810;4.442;2023-10-31T14:34:30;18.35;;;9.57;;
23608;SDS011;11982;50.810;4.442;2023-10-31T14:36:55;21.02;;;10.20;;
23608;SDS011;11982;50.810;4.442;2023-10-31T14:39:21;16.52;;;8.88;;
23608;SDS011;11982;50.810;4.442;2023-10-31T14:45:08;20.77;;;9.18;;
23608;SDS011;11982;50.810;4.442;2023-10-31T14:47:34;20.35;;;9.10;;
23608;SDS011;11982;50.810;4.442;2023-10-31T14:50:00;15.82;;;9.38;;
23608;SDS011;11982;50.810;4.442;2023-10-31T14:52:26;19.58;;;10.02;;
23608;SDS011;11982;50.810;4.442;2023-10-31T14:54:51;18.85;;;10.73;;
23608;SDS011;11982;50.810;4.442;2023-10-31T14:57:17;21.40;;;10.95;;
23608;SDS011;11982;50.810;4.442;2023-10-31T14:59:44;21.67;;;11.32;;
23608;SDS011;11982;50.810;4.442;2023-10-31T15:02:10;20.02;;;10.02;;
23608;SDS011;11982;50.810;4.442;2023-10-31T15:04:36;19.77;;;10.60;;
23608;SDS011;11982;50.810;4.442;2023-10-31T15:07:02;19.35;;;9.88;;
23608;SDS011;11982;50.810;4.442;2023-10-31T15:09:28;23.17;;;10.45;;
23608;SDS011;11982;50.810;4.442;2023-10-31T15:15:15;20.63;;;10.18;;
23608;SDS011;11982;50.810;4.442;2023-10-31T15:17:41;20.48;;;10.15;;
23608;SDS011;11982;50.810;4.442;2023-10-31T15:20:07;19.90;;;10.57;;
23608;SDS011;11982;50.810;4.442;2023-10-31T15:22:38;18.73;;;10.63;;
23608;SDS011;11982;50.810;4.442;2023-10-31T15:25:05;25.58;;;11.23;;
23608;SDS011;11982;50.810;4.442;2023-10-31T15:30:53;20.90;;;10.50;;
23608;SDS011;11982;50.810;4.442;2023-10-31T15:33:19;17.10;;;9.40;;
23608;SDS011;11982;50.810;4.442;2023-10-31T15:35:44;19.20;;;8.73;;
23608;SDS011;11982;50.810;4.442;2023-10-31T15:38:10;21.55;;;10.25;;
23608;SDS011;11982;50.810;4.442;2023-10-31T15:40:36;21.85;;;9.65;;
23608;SDS011;11982;50.810;4.442;2023-10-31T15:43:01;24.55;;;9.90;;
23608;SDS011;11982;50.810;4.442;2023-10-31T15:45:27;19.45;;;9.25;;
23608;SDS011;11982;50.810;4.442;2023-10-31T15:47:53;21.13;;;8.98;;
23608;SDS011;11982;50.810;4.442;2023-10-31T15:50:18;19.70;;;7.88;;
23608;SDS011;11982;50.810;4.442;2023-10-31T15:52:44;19.33;;;8.43;;
23608;SDS011;11982;50.810;4.442;2023-10-31T15:55:11;18.55;;;7.88;;
23608;SDS011;11982;50.810;4.442;2023-10-31T16:00:59;15.82;;;7.65;;
23608;SDS011;11982;50.810;4.442;2023-10-31T16:03:24;16.73;;;8.38;;
23608;SDS011;11982;50.810;4.442;2023-10-31T16:05:50;19.92;;;8.23;;
23608;SDS011;11982;50.810;4.442;2023-10-31T16:08:16;19.85;;;8.15;;
23608;SDS011;11982;50.810;4.442;2023-10-31T16:10:42;23.08;;;7.38;;
23608;SDS011;11982;50.810;4.442;2023-10-31T16:16:29;16.60;;;7.30;;
23608;SDS011;11982;50.810;4.442;2023-10-31T16:18:55;15.52;;;6.93;;
23608;SDS011;11982;50.810;4.442;2023-10-31T16:21:22;21.15;;;7.70;;
23608;SDS011;11982;50.810;4.442;2023-10-31T16:23:48;23.92;;;8.05;;
23608;SDS011;11982;50.810;4.442;2023-10-31T16:26:17;24.90;;;8.13;;
23608;SDS011;11982;50.810;4.442;2023-10-31T16:28:44;21.33;;;8.32;;
23608;SDS011;11982;50.810;4.442;2023-10-31T16:31:11;22.98;;;8.98;;
23608;SDS011;11982;50.810;4.442;2023-10-31T16:33:38;19.95;;;8.15;;
23608;SDS011;11982;50.810;4.442;2023-10-31T16:36:07;20.83;;;7.78;;
23608;SDS011;11982;50.810;4.442;2023-10-31T16:38:33;21.65;;;7.93;;